Time;durP1;ratioP1;P1;durP2;ratioP2;P2;SDS_P1;SDS_P2;PMS_P1;PMS_P2;Temp;Humidity;BMP_temperature;BMP_pressure;BME280_temperature;BME280_humidity;BME280_pressure;Samples;Min_cycle;Max_cycle;Signal;HPM_P1;HPM_P2
2023/04/25 00:03:51;;;;;;;9.18;6.88;;;;;;;-146.18;100.00;67994.34;10115341;28;20059;-68
2023/04/25 00:08:48;;;;;;;9.02;6.78;;;;;;;-146.18;100.00;67994.34;10115508;28;20066;-66
2023/04/25 00:13:46;;;;;;;11.38;6.95;;;;;;;-146.18;100.00;67994.34;10103017;28;20129;-69
2023/04/25 00:18:51;;;;;;;12.48;6.65;;;;;;;-146.18;100.00;67994.34;10107962;28;20046;-70
2023/04/25 00:23:47;;;;;;;17.50;7.78;;;;;;;-146.18;100.00;67994.34;10115776;28;20713;-70
2023/04/25 00:28:44;;;;;;;13.77;7.18;;;;;;;-146.18;100.00;67994.34;10115088;28;20067;-69
2023/04/25 00:33:41;;;;;;;21.30;8.77;;;;;;;-146.18;100.00;67994.34;10112975;28;20050;-69
2023/04/25 00:38:38;;;;;;;19.42;7.60;;;;;;;-146.18;100.00;67994.34;10112116;28;20042;-68
2023/04/25 00:43:36;;;;;;;20.77;8.23;;;;;;;-146.18;100.00;67994.34;10103212;28;20046;-69
2023/04/25 00:48:32;;;;;;;19.10;6.90;;;;;;;-146.18;100.00;67994.34;10110607;28;20047;-68
2023/04/25 00:53:31;;;;;;;17.88;6.65;;;;;;;-146.18;100.00;67994.34;10111391;28;20092;-69
2023/04/25 00:58:28;;;;;;;19.38;7.03;;;;;;;-146.18;100.00;67994.34;10102771;28;20474;-71
2023/04/25 01:03:24;;;;;;;18.08;6.75;;;;;;;-146.18;100.00;67994.34;10105953;28;20539;-72
2023/04/25 01:08:25;;;;;;;24.08;7.28;;;;;;;-146.18;100.00;67994.34;10105929;28;20074;-70
2023/04/25 01:13:21;;;;;;;26.77;7.63;;;;;;;-146.18;100.00;67994.34;10110442;28;20077;-70
2023/04/25 01:18:20;;;;;;;20.23;6.85;;;;;;;-146.18;100.00;67994.34;10104015;28;20214;-67
2023/04/25 01:23:17;;;;;;;20.35;6.25;;;;;;;-146.18;100.00;67994.34;10095325;28;20415;-69
2023/04/25 01:28:13;;;;;;;17.90;6.65;;;;;;;-146.18;100.00;67994.34;10100360;28;20086;-68
2023/04/25 01:33:13;;;;;;;25.67;6.68;;;;;;;-146.18;100.00;67994.34;10105224;28;20535;-67
2023/04/25 01:38:10;;;;;;;20.88;7.75;;;;;;;-146.18;100.00;67994.34;10109118;28;20077;-68
2023/04/25 01:43:11;;;;;;;23.75;6.93;;;;;;;-146.18;100.00;67994.34;10109420;28;20047;-68
2023/04/25 01:48:09;;;;;;;24.98;8.20;;;;;;;-146.18;100.00;67994.34;10110473;28;20053;-69
2023/04/25 01:53:06;;;;;;;26.33;7.32;;;;;;;-146.18;100.00;67994.34;10108375;28;20047;-68
2023/04/25 01:58:08;;;;;;;20.98;6.50;;;;;;;-146.18;100.00;67994.34;10109956;28;20520;-68
2023/04/25 02:03:08;;;;;;;23.70;7.15;;;;;;;-146.18;100.00;67994.34;10088262;28;20113;-69
2023/04/25 02:08:06;;;;;;;19.15;6.43;;;;;;;-146.18;100.00;67994.34;10099871;28;20058;-69
2023/04/25 02:13:05;;;;;;;24.08;8.75;;;;;;;-146.18;100.00;67994.34;10099034;28;20077;-69
2023/04/25 02:18:01;;;;;;;29.30;7.63;;;;;;;-146.18;100.00;67994.34;10099657;28;20605;-69
2023/04/25 02:22:58;;;;;;;24.73;6.43;;;;;;;-146.18;100.00;67994.34;10109356;28;20058;-69
2023/04/25 02:27:54;;;;;;;24.85;7.88;;;;;;;-146.18;100.00;67994.34;10102822;28;20066;-70
2023/04/25 02:32:51;;;;;;;19.95;6.38;;;;;;;-146.18;100.00;67994.34;10101710;28;20046;-69
2023/04/25 02:37:47;;;;;;;18.30;6.85;;;;;;;-146.18;100.00;67994.34;10110640;28;20130;-69
2023/04/25 02:42:45;;;;;;;25.05;9.27;;;;;;;-146.18;100.00;67994.34;10102332;28;20179;-69
2023/04/25 02:47:42;;;;;;;18.73;6.65;;;;;;;-146.18;100.00;67994.34;10106947;28;20502;-70
2023/04/25 02:52:38;;;;;;;23.23;7.10;;;;;;;-146.18;100.00;67994.34;10100190;28;20094;-71
2023/04/25 02:57:37;;;;;;;26.50;7.20;;;;;;;-146.18;100.00;67994.34;10104609;28;20397;-71
2023/04/25 03:02:34;;;;;;;23.30;6.50;;;;;;;-146.18;100.00;67994.34;10105137;28;20531;-70
2023/04/25 03:07:30;;;;;;;23.13;6.80;;;;;;;-146.18;100.00;67994.34;10101935;28;20046;-71
2023/04/25 03:12:27;;;;;;;22.50;7.13;;;;;;;-146.18;100.00;67994.34;10098099;28;20130;-67
2023/04/25 03:17:23;;;;;;;21.50;6.55;;;;;;;-146.18;100.00;67994.34;10106569;28;20652;-68
2023/04/25 03:22:20;;;;;;;23.05;6.70;;;;;;;-146.18;100.00;67994.34;10108959;28;20061;-68
2023/04/25 03:27:17;;;;;;;18.55;5.97;;;;;;;-146.18;100.00;67994.34;10101954;28;20509;-68
2023/04/25 03:32:13;;;;;;;24.27;7.30;;;;;;;-146.18;100.00;67994.34;10097060;28;20055;-71
2023/04/25 03:37:10;;;;;;;13.50;6.30;;;;;;;-146.18;100.00;67994.34;10113350;28;20409;-72
2023/04/25 03:42:07;;;;;;;21.95;7.47;;;;;;;-146.18;100.00;67994.34;10113420;28;20106;-71
2023/04/25 03:47:03;;;;;;;18.13;6.93;;;;;;;-146.18;100.00;67994.34;10098360;28;20082;-71
2023/04/25 03:52:00;;;;;;;19.90;6.03;;;;;;;-146.18;100.00;67994.34;10107925;28;20055;-73
2023/04/25 03:56:56;;;;;;;21.67;7.97;;;;;;;-146.18;100.00;67994.34;10100310;28;20058;-73
2023/04/25 04:01:54;;;;;;;13.95;6.07;;;;;;;-146.18;100.00;67994.34;10106098;28;20137;-73
2023/04/25 04:06:52;;;;;;;18.38;7.15;;;;;;;-146.18;100.00;67994.34;10106153;28;20055;-73
2023/04/25 04:11:48;;;;;;;24.10;8.55;;;;;;;-146.18;100.00;67994.34;10113697;28;20105;-74
2023/04/25 04:16:45;;;;;;;23.60;7.35;;;;;;;-146.18;100.00;67994.34;10107385;28;20066;-73
2023/04/25 04:21:41;;;;;;;13.65;7.18;;;;;;;-146.18;100.00;67994.34;10104101;28;20051;-72
2023/04/25 04:26:38;;;;;;;20.52;8.15;;;;;;;-146.18;100.00;67994.34;10102175;28;20106;-69
2023/04/25 04:31:35;;;;;;;18.33;6.88;;;;;;;-146.18;100.00;67994.34;10100447;28;20505;-71
2023/04/25 04:36:32;;;;;;;18.33;6.15;;;;;;;-146.18;100.00;67994.34;10099543;28;20062;-72
2023/04/25 04:41:28;;;;;;;17.10;6.80;;;;;;;-146.18;100.00;67994.34;10101777;28;20138;-73
2023/04/25 04:46:25;;;;;;;13.63;7.40;;;;;;;-146.18;100.00;67994.34;10099721;28;20051;-72
2023/04/25 04:51:21;;;;;;;16.92;6.93;;;;;;;-146.18;100.00;67994.34;10100263;28;21929;-71
2023/04/25 04:56:20;;;;;;;22.90;7.15;;;;;;;-146.18;100.00;67994.34;10105068;28;20125;-72
2023/04/25 05:01:17;;;;;;;15.98;7.03;;;;;;;-146.18;100.00;67994.34;10104336;28;20106;-72
2023/04/25 05:06:13;;;;;;;18.35;7.53;;;;;;;-146.18;100.00;67994.34;10103555;28;20059;-72
2023/04/25 05:11:10;;;;;;;11.65;6.38;;;;;;;-146.18;100.00;67994.34;10102198;28;20480;-72
2023/04/25 05:16:07;;;;;;;22.25;7.90;;;;;;;-146.18;100.00;67994.34;10104718;28;20484;-72
2023/04/25 05:21:04;;;;;;;19.75;7.18;;;;;;;-146.18;100.00;67994.34;10092044;28;20571;-71
2023/04/25 05:26:00;;;;;;;14.10;6.30;;;;;;;-146.18;100.00;67994.34;10107889;28;20544;-72
2023/04/25 05:30:57;;;;;;;13.70;6.47;;;;;;;-146.18;100.00;67994.34;10088549;28;20057;-72
2023/04/25 05:35:55;;;;;;;21.58;6.93;;;;;;;-146.18;100.00;67994.34;10102285;28;20126;-72
2023/04/25 05:40:51;;;;;;;17.20;7.07;;;;;;;-146.18;100.00;67994.34;10097543;28;20046;-72
2023/04/25 05:45:47;;;;;;;11.55;7.00;;;;;;;-146.18;100.00;67994.34;10101136;28;20089;-72
2023/04/25 05:50:44;;;;;;;19.10;8.07;;;;;;;-146.18;100.00;67994.34;10093035;28;20063;-72
2023/04/25 05:55:42;;;;;;;13.57;7.43;;;;;;;-146.18;100.00;67994.34;10096461;28;20039;-72
2023/04/25 06:00:41;;;;;;;20.05;6.50;;;;;;;-146.18;100.00;67994.34;10105909;28;20505;-72
2023/04/25 06:05:37;;;;;;;21.48;7.80;;;;;;;-146.18;100.00;67994.34;10099131;28;20042;-72
2023/04/25 06:10:34;;;;;;;14.25;7.18;;;;;;;-146.18;100.00;67994.34;10108921;28;20402;-71
2023/04/25 06:15:33;;;;;;;18.05;6.97;;;;;;;-146.18;100.00;67994.34;10103719;28;20047;-71
2023/04/25 06:20:30;;;;;;;21.98;8.70;;;;;;;-146.18;100.00;67994.34;10087561;28;20094;-72
2023/04/25 06:25:26;;;;;;;16.45;7.72;;;;;;;-146.18;100.00;67994.34;10096708;28;20055;-71
2023/04/25 06:30:25;;;;;;;18.75;7.70;;;;;;;-146.18;100.00;67994.34;10097849;28;20113;-71
2023/04/25 06:35:21;;;;;;;17.73;6.88;;;;;;;-146.18;100.00;67994.34;10105667;28;20521;-71
2023/04/25 06:40:18;;;;;;;18.23;7.05;;;;;;;-146.18;100.00;67994.34;10091460;28;20514;-71
2023/04/25 06:45:14;;;;;;;18.95;6.88;;;;;;;-146.18;100.00;67994.34;10103859;28;20097;-71
2023/04/25 06:50:11;;;;;;;14.95;7.05;;;;;;;-146.18;100.00;67994.34;10094421;28;20051;-71
2023/04/25 06:55:08;;;;;;;16.85;7.82;;;;;;;-146.18;100.00;67994.34;10094150;28;20153;-71
2023/04/25 07:00:08;;;;;;;13.70;6.10;;;;;;;-146.18;100.00;67994.34;10094738;28;20105;-71
2023/04/25 07:05:04;;;;;;;20.98;6.75;;;;;;;-146.18;100.00;67994.34;10095076;28;20057;-71
2023/04/25 07:10:01;;;;;;;12.63;6.43;;;;;;;-146.18;100.00;67994.34;10108829;28;20503;-72
2023/04/25 07:14:57;;;;;;;15.23;6.88;;;;;;;-146.18;100.00;67994.34;10103653;28;20505;-72
2023/04/25 07:19:54;;;;;;;12.35;5.85;;;;;;;-146.18;100.00;67994.34;10103316;28;20081;-72
2023/04/25 07:24:50;;;;;;;12.07;6.75;;;;;;;-146.18;100.00;67994.34;10100830;28;20057;-72
2023/04/25 07:29:47;;;;;;;13.18;6.10;;;;;;;-146.18;100.00;67994.34;10097248;28;20046;-72
2023/04/25 07:34:43;;;;;;;14.90;7.03;;;;;;;-146.18;100.00;67994.34;10105752;28;20069;-72
2023/04/25 07:39:40;;;;;;;19.45;6.53;;;;;;;-146.18;100.00;67994.34;10093920;28;20101;-72
2023/04/25 07:44:38;;;;;;;9.45;5.50;;;;;;;-146.18;100.00;67994.34;10098004;28;20050;-72
2023/04/25 07:49:36;;;;;;;20.67;6.53;;;;;;;-146.18;100.00;67994.34;10091974;28;20047;-72
2023/04/25 07:54:32;;;;;;;15.18;6.55;;;;;;;-146.18;100.00;67994.34;10104784;28;20047;-73
2023/04/25 07:59:29;;;;;;;16.17;6.40;;;;;;;-146.18;100.00;67994.34;10090098;28;20061;-73
2023/04/25 08:04:26;;;;;;;12.77;6.50;;;;;;;-146.18;100.00;67994.34;10111379;28;20042;-72
2023/04/25 08:09:22;;;;;;;16.58;7.30;;;;;;;-146.18;100.00;67994.34;10105697;28;20054;-72
2023/04/25 08:14:19;;;;;;;15.35;7.05;;;;;;;-146.18;100.00;67994.34;10112823;28;20078;-72
2023/04/25 08:19:16;;;;;;;15.02;5.75;;;;;;;-146.18;100.00;67994.34;10100336;28;20505;-72
2023/04/25 08:24:12;;;;;;;11.50;6.32;;;;;;;-146.18;100.00;67994.34;10107136;28;20130;-72
2023/04/25 08:29:08;;;;;;;14.80;6.88;;;;;;;-146.18;100.00;67994.34;10097261;28;20151;-72
2023/04/25 08:34:05;;;;;;;9.63;5.78;;;;;;;-146.18;100.00;67994.34;10100354;28;20054;-72
2023/04/25 08:39:02;;;;;;;10.75;6.10;;;;;;;-146.18;100.00;67994.34;10110941;28;20061;-72
2023/04/25 08:44:00;;;;;;;9.35;6.05;;;;;;;-146.18;100.00;67994.34;10098736;28;20074;-72
2023/04/25 08:49:01;;;;;;;9.98;6.15;;;;;;;-146.18;100.00;67994.34;10101834;28;20055;-71
2023/04/25 08:54:10;;;;;;;13.27;6.57;;;;;;;-146.18;100.00;67994.34;10106775;28;20097;-72
2023/04/25 08:59:27;;;;;;;13.45;6.38;;;;;;;-146.18;100.00;67994.34;10103754;28;20126;-71
2023/04/25 09:04:24;;;;;;;9.05;5.25;;;;;;;-146.18;100.00;67994.34;10106618;28;20040;-71
2023/04/25 09:09:21;;;;;;;12.13;6.20;;;;;;;-146.18;100.00;67994.34;10101780;28;20047;-71
2023/04/25 09:14:22;;;;;;;11.52;6.57;;;;;;;-146.18;100.00;67994.34;10101886;28;20117;-72
2023/04/25 09:19:35;;;;;;;12.97;5.80;;;;;;;-146.18;100.00;67994.34;10104245;28;20511;-72
2023/04/25 09:24:38;;;;;;;8.40;5.60;;;;;;;-146.18;100.00;67994.34;10093461;28;20043;-72
2023/04/25 09:29:37;;;;;;;10.65;4.85;;;;;;;-146.18;100.00;67994.34;10089539;28;20077;-72
2023/04/25 09:34:40;;;;;;;11.95;5.43;;;;;;;-146.18;100.00;67994.34;10103516;28;20058;-72
2023/04/25 09:39:38;;;;;;;8.70;5.50;;;;;;;-146.18;100.00;67994.34;10103813;28;20050;-72
2023/04/25 09:44:35;;;;;;;11.82;5.80;;;;;;;-146.18;100.00;67994.34;10097485;28;20043;-72
2023/04/25 09:49:32;;;;;;;8.20;5.22;;;;;;;-146.18;100.00;67994.34;10101090;28;20061;-71
2023/04/25 09:54:28;;;;;;;12.52;5.30;;;;;;;-146.18;100.00;67994.34;10096281;28;20485;-71
2023/04/25 09:59:25;;;;;;;9.63;5.32;;;;;;;-146.18;100.00;67994.34;10101390;28;20236;-72
2023/04/25 10:04:26;;;;;;;9.88;5.25;;;;;;;-146.18;100.00;67994.34;10101790;28;20394;-72
2023/04/25 10:09:26;;;;;;;10.25;5.38;;;;;;;-146.18;100.00;67994.34;10096125;28;20600;-72
2023/04/25 10:14:24;;;;;;;13.50;5.63;;;;;;;-146.18;100.00;67994.34;10099918;28;20044;-72
2023/04/25 10:19:21;;;;;;;14.35;5.80;;;;;;;-146.18;100.00;67994.34;10092708;28;20589;-72
2023/04/25 10:24:19;;;;;;;9.35;5.85;;;;;;;-146.18;100.00;67994.34;10103587;28;20046;-73
2023/04/25 10:29:25;;;;;;;9.98;5.40;;;;;;;-146.18;100.00;67994.34;10097572;28;20138;-72
2023/04/25 10:34:42;;;;;;;6.60;5.20;;;;;;;-146.18;100.00;67994.34;10096068;28;20047;-72
2023/04/25 10:39:41;;;;;;;8.95;5.32;;;;;;;-146.18;100.00;67994.34;10095666;28;20057;-72
2023/04/25 10:44:39;;;;;;;10.48;5.65;;;;;;;-146.18;100.00;67994.34;10096982;28;20050;-72
2023/04/25 10:49:42;;;;;;;8.57;5.15;;;;;;;-146.18;100.00;67994.34;10090290;28;20066;-72
2023/04/25 10:54:48;;;;;;;15.18;6.15;;;;;;;-146.18;100.00;67994.34;10107886;28;20505;-72
2023/04/25 10:59:44;;;;;;;9.45;5.88;;;;;;;-146.18;100.00;67994.34;10099263;28;20089;-72
2023/04/25 11:04:41;;;;;;;8.52;5.13;;;;;;;-146.18;100.00;67994.34;10104217;28;20116;-72
2023/04/25 11:09:40;;;;;;;9.55;6.15;;;;;;;-146.18;100.00;67994.34;10101153;28;20054;-72
2023/04/25 11:14:37;;;;;;;7.85;5.00;;;;;;;-146.18;100.00;67994.34;10098428;28;20051;-71
2023/04/25 11:19:33;;;;;;;9.90;4.88;;;;;;;-146.18;100.00;67994.34;10089402;28;20051;-72
2023/04/25 11:24:32;;;;;;;14.93;5.05;;;;;;;-146.18;100.00;67994.34;10099384;28;20043;-73
2023/04/25 11:29:30;;;;;;;9.30;5.57;;;;;;;-146.18;100.00;67994.34;10091024;28;20509;-71
2023/04/25 11:34:30;;;;;;;9.85;5.32;;;;;;;-146.18;100.00;67994.34;10100215;28;20047;-72
2023/04/25 11:39:27;;;;;;;15.38;6.10;;;;;;;-146.18;100.00;67994.34;10106308;28;20076;-71
2023/04/25 11:44:24;;;;;;;8.90;4.95;;;;;;;-146.18;100.00;67994.34;10102013;28;20044;-71
2023/04/25 11:49:21;;;;;;;9.75;5.38;;;;;;;-146.18;100.00;67994.34;10095756;28;20130;-72
2023/04/25 11:54:18;;;;;;;11.38;5.50;;;;;;;-146.18;100.00;67994.34;10109507;28;20413;-72
2023/04/25 11:59:16;;;;;;;10.00;5.97;;;;;;;-146.18;100.00;67994.34;10102003;28;20050;-72
2023/04/25 12:04:23;;;;;;;10.18;4.90;;;;;;;-146.18;100.00;67994.34;10099539;28;20081;-72
2023/04/25 12:09:28;;;;;;;9.43;4.82;;;;;;;-146.18;100.00;67994.34;10103121;28;20050;-72
2023/04/25 12:14:30;;;;;;;8.60;4.82;;;;;;;-146.18;100.00;67994.34;10111751;28;20047;-72
2023/04/25 12:19:33;;;;;;;7.32;4.95;;;;;;;-146.18;100.00;67994.34;10109637;28;20743;-72
2023/04/25 12:24:33;;;;;;;8.90;5.13;;;;;;;-146.18;100.00;67994.34;10108387;28;20047;-72
2023/04/25 12:29:34;;;;;;;11.13;5.25;;;;;;;-146.18;100.00;67994.34;10104022;28;20047;-71
2023/04/25 12:34:45;;;;;;;8.13;5.30;;;;;;;-146.18;100.00;67994.34;10108831;28;20042;-72
2023/04/25 12:39:41;;;;;;;6.32;4.78;;;;;;;-146.18;100.00;67994.34;10103859;28;20053;-72
2023/04/25 12:44:38;;;;;;;8.10;4.80;;;;;;;-146.18;100.00;67994.34;10099921;28;20467;-72
2023/04/25 12:49:35;;;;;;;7.45;5.13;;;;;;;-146.18;100.00;67994.34;10093374;28;20042;-72
2023/04/25 12:54:31;;;;;;;6.82;4.30;;;;;;;-146.18;100.00;67994.34;10099824;28;20070;-72
2023/04/25 12:59:28;;;;;;;11.35;4.85;;;;;;;-146.18;100.00;67994.34;10102100;28;20074;-72
2023/04/25 13:04:24;;;;;;;9.30;5.07;;;;;;;-146.18;100.00;67994.34;10105995;28;20062;-72
2023/04/25 13:09:21;;;;;;;9.10;4.95;;;;;;;-146.18;100.00;67994.34;10105901;28;20055;-72
2023/04/25 13:14:18;;;;;;;9.95;5.38;;;;;;;-146.18;100.00;67994.34;10105555;28;20501;-72
2023/04/25 13:19:14;;;;;;;12.82;6.40;;;;;;;-146.18;100.00;67994.34;10098312;28;20047;-72
2023/04/25 13:24:10;;;;;;;6.97;4.57;;;;;;;-146.18;100.00;67994.34;10111086;28;20049;-71
2023/04/25 13:29:07;;;;;;;5.75;4.80;;;;;;;-146.18;100.00;67994.34;10110563;28;20461;-72
2023/04/25 13:34:03;;;;;;;8.82;5.20;;;;;;;-146.18;100.00;67994.34;10095570;28;20085;-71
2023/04/25 13:39:04;;;;;;;15.15;6.95;;;;;;;-146.18;100.00;67994.34;10099955;28;20047;-72
2023/04/25 13:44:01;;;;;;;12.77;5.78;;;;;;;-146.18;100.00;67994.34;10109666;28;20389;-72
2023/04/25 13:48:57;;;;;;;12.27;5.40;;;;;;;-146.18;100.00;67994.34;10108647;28;20047;-72
2023/04/25 13:54:07;;;;;;;10.30;5.32;;;;;;;-146.18;100.00;67994.34;10099929;28;20058;-72
2023/04/25 13:59:03;;;;;;;7.40;4.75;;;;;;;-146.18;100.00;67994.34;10099265;28;20046;-71
2023/04/25 14:04:00;;;;;;;9.90;4.93;;;;;;;-146.18;100.00;67994.34;10095853;28;20051;-71
2023/04/25 14:08:56;;;;;;;6.03;4.70;;;;;;;-146.18;100.00;67994.34;10095409;28;20055;-71
2023/04/25 14:13:53;;;;;;;9.90;4.50;;;;;;;-146.18;100.00;67994.34;10105139;28;20061;-71
2023/04/25 14:18:50;;;;;;;13.82;4.82;;;;;;;-146.18;100.00;67994.34;10105403;28;20054;-71
2023/04/25 14:23:47;;;;;;;6.47;4.97;;;;;;;-146.18;100.00;67994.34;10103912;28;20061;-71
2023/04/25 14:28:44;;;;;;;15.07;5.15;;;;;;;-146.18;100.00;67994.34;10102396;28;20054;-72
2023/04/25 14:33:43;;;;;;;7.93;4.63;;;;;;;-146.18;100.00;67994.34;10102126;28;20046;-72
2023/04/25 14:38:39;;;;;;;11.50;5.38;;;;;;;-146.18;100.00;67994.34;10092763;28;20047;-72
2023/04/25 14:43:36;;;;;;;10.60;5.80;;;;;;;-146.18;100.00;67994.34;10093087;28;20190;-72
2023/04/25 14:48:34;;;;;;;8.43;5.57;;;;;;;-146.18;100.00;67994.34;10101075;28;20047;-72
2023/04/25 14:53:31;;;;;;;11.95;4.53;;;;;;;-146.18;100.00;67994.34;10098112;28;20291;-71
2023/04/25 14:58:28;;;;;;;11.40;5.03;;;;;;;-146.18;100.00;67994.34;10095866;28;20437;-72
2023/04/25 15:03:24;;;;;;;6.82;5.30;;;;;;;-146.18;100.00;67994.34;10102411;28;20043;-72
2023/04/25 15:08:21;;;;;;;9.07;4.57;;;;;;;-146.18;100.00;67994.34;10097519;28;20046;-71
2023/04/25 15:13:19;;;;;;;10.52;5.75;;;;;;;-146.18;100.00;67994.34;10099222;28;20460;-71
2023/04/25 15:18:15;;;;;;;7.25;4.65;;;;;;;-146.18;100.00;67994.34;10103464;28;20508;-72
2023/04/25 15:23:12;;;;;;;8.90;4.80;;;;;;;-146.18;100.00;67994.34;10093733;28;20035;-71
2023/04/25 15:28:08;;;;;;;8.18;4.82;;;;;;;-146.18;100.00;67994.34;10096951;28;20509;-72
2023/04/25 15:33:05;;;;;;;10.45;5.13;;;;;;;-146.18;100.00;67994.34;10096224;28;20043;-72
2023/04/25 15:38:01;;;;;;;29.10;6.75;;;;;;;-146.18;100.00;67994.34;10103235;28;20070;-72
2023/04/25 15:42:58;;;;;;;10.40;4.75;;;;;;;-146.18;100.00;67994.34;10096883;28;20074;-72
2023/04/25 15:47:56;;;;;;;8.50;5.10;;;;;;;-146.18;100.00;67994.34;10103311;28;20431;-72
2023/04/25 15:52:53;;;;;;;10.63;4.55;;;;;;;-146.18;100.00;67994.34;10085088;28;20039;-73
2023/04/25 15:57:50;;;;;;;7.30;5.20;;;;;;;-146.18;100.00;67994.34;10102480;28;20087;-72
2023/04/25 16:02:49;;;;;;;11.23;5.75;;;;;;;-146.18;100.00;67994.34;10099566;28;20051;-73
2023/04/25 16:07:46;;;;;;;7.35;4.93;;;;;;;-146.18;100.00;67994.34;10099878;28;20066;-73
2023/04/25 16:12:43;;;;;;;6.47;4.90;;;;;;;-146.18;100.00;67994.34;10090015;28;20046;-72
2023/04/25 16:17:40;;;;;;;9.45;4.97;;;;;;;-146.18;100.00;67994.34;10094537;28;20075;-74
2023/04/25 16:22:41;;;;;;;8.38;5.20;;;;;;;-146.18;100.00;67994.34;10098230;28;20042;-73
2023/04/25 16:27:38;;;;;;;9.38;5.53;;;;;;;-146.18;100.00;67994.34;10108744;28;20051;-71
2023/04/25 16:32:35;;;;;;;11.82;5.00;;;;;;;-146.18;100.00;67994.34;10093611;28;20043;-71
2023/04/25 16:37:32;;;;;;;8.85;4.82;;;;;;;-146.18;100.00;67994.34;10103144;28;20058;-71
2023/04/25 16:42:28;;;;;;;8.73;4.75;;;;;;;-146.18;100.00;67994.34;10092329;28;20043;-71
2023/04/25 16:47:25;;;;;;;11.18;5.03;;;;;;;-146.18;100.00;67994.34;10104783;28;20651;-71
2023/04/25 16:52:22;;;;;;;8.90;5.00;;;;;;;-146.18;100.00;67994.34;10091165;28;20048;-71
2023/04/25 16:57:19;;;;;;;14.68;5.38;;;;;;;-146.18;100.00;67994.34;10103767;28;20131;-71
2023/04/25 17:02:16;;;;;;;8.50;5.35;;;;;;;-146.18;100.00;67994.34;10099258;28;20055;-71
2023/04/25 17:07:13;;;;;;;8.98;5.20;;;;;;;-146.18;100.00;67994.34;10107206;28;20054;-70
2023/04/25 17:12:09;;;;;;;7.65;4.60;;;;;;;-146.18;100.00;67994.34;10098895;28;20053;-71
2023/04/25 17:17:06;;;;;;;8.13;5.00;;;;;;;-146.18;100.00;67994.34;10103931;28;20055;-71
2023/04/25 17:22:02;;;;;;;7.70;4.85;;;;;;;-146.18;100.00;67994.34;10094457;28;20509;-70
2023/04/25 17:27:00;;;;;;;9.70;4.57;;;;;;;-146.18;100.00;67994.34;10096445;28;20142;-70
2023/04/25 17:31:56;;;;;;;9.23;5.30;;;;;;;-146.18;100.00;67994.34;10100462;28;20047;-70
2023/04/25 17:36:53;;;;;;;10.68;5.03;;;;;;;-146.18;100.00;67994.34;10102540;28;20038;-70
2023/04/25 17:41:50;;;;;;;7.90;4.85;;;;;;;-146.18;100.00;67994.34;10109305;28;20038;-70
2023/04/25 17:46:46;;;;;;;11.35;5.50;;;;;;;-146.18;100.00;67994.34;10107924;28;20066;-71
2023/04/25 17:51:43;;;;;;;10.65;5.45;;;;;;;-146.18;100.00;67994.34;10092555;28;20043;-70
2023/04/25 17:56:40;;;;;;;13.70;5.93;;;;;;;-146.18;100.00;67994.34;10101714;28;20066;-73
2023/04/25 18:01:37;;;;;;;10.85;5.00;;;;;;;-146.18;100.00;67994.34;10106786;28;20666;-70
2023/04/25 18:06:34;;;;;;;13.15;6.65;;;;;;;-146.18;100.00;67994.34;10105758;28;20886;-71
2023/04/25 18:11:31;;;;;;;6.82;4.88;;;;;;;-146.18;100.00;67994.34;10105922;28;20705;-71
2023/04/25 18:16:28;;;;;;;12.43;5.47;;;;;;;-146.18;100.00;67994.34;10103367;28;20053;-71
2023/04/25 18:21:24;;;;;;;11.23;5.13;;;;;;;-146.18;100.00;67994.34;10107113;28;20047;-71
2023/04/25 18:26:22;;;;;;;7.22;4.30;;;;;;;-146.18;100.00;67994.34;10101591;28;20050;-71
2023/04/25 18:31:22;;;;;;;16.08;6.20;;;;;;;-146.18;100.00;67994.34;10106644;28;20081;-71
2023/04/25 18:36:19;;;;;;;10.52;4.53;;;;;;;-146.18;100.00;67994.34;10107992;28;20109;-71
2023/04/25 18:41:16;;;;;;;15.38;4.82;;;;;;;-146.18;100.00;67994.34;10105302;28;20058;-70
2023/04/25 18:46:20;;;;;;;10.07;5.28;;;;;;;-146.18;100.00;67994.34;10104418;28;20042;-71
2023/04/25 18:51:26;;;;;;;12.88;5.97;;;;;;;-146.18;100.00;67994.34;10107673;28;20097;-71
2023/04/25 18:56:24;;;;;;;9.23;5.15;;;;;;;-146.18;100.00;67994.34;10101401;28;20090;-71
2023/04/25 19:01:23;;;;;;;13.85;5.28;;;;;;;-146.18;100.00;67994.34;10103672;28;20062;-71
2023/04/25 19:06:21;;;;;;;12.25;5.80;;;;;;;-146.18;100.00;67994.34;10098187;28;20060;-71
2023/04/25 19:11:20;;;;;;;9.05;4.97;;;;;;;-146.18;100.00;67994.34;10107959;28;20078;-71
2023/04/25 19:16:17;;;;;;;12.00;4.65;;;;;;;-146.18;100.00;67994.34;10107754;28;20070;-71
2023/04/25 19:21:13;;;;;;;12.23;5.30;;;;;;;-146.18;100.00;67994.34;10106570;28;20050;-71
2023/04/25 19:26:13;;;;;;;17.35;5.40;;;;;;;-146.18;100.00;67994.34;10098930;28;20156;-71
2023/04/25 19:31:10;;;;;;;9.85;5.00;;;;;;;-146.18;100.00;67994.34;10093025;28;20110;-70
2023/04/25 19:36:07;;;;;;;11.63;5.78;;;;;;;-146.18;100.00;67994.34;10107250;28;20047;-71
2023/04/25 19:41:03;;;;;;;7.97;5.00;;;;;;;-146.18;100.00;67994.34;10096640;28;20048;-73
2023/04/25 19:46:00;;;;;;;9.77;5.80;;;;;;;-146.18;100.00;67994.34;10097452;28;20046;-73
2023/04/25 19:50:57;;;;;;;11.07;5.70;;;;;;;-146.18;100.00;67994.34;10094315;28;20063;-72
2023/04/25 19:55:53;;;;;;;10.57;6.70;;;;;;;-146.18;100.00;67994.34;10098912;28;20039;-71
2023/04/25 20:00:50;;;;;;;9.43;5.18;;;;;;;-146.18;100.00;67994.34;10100241;28;20043;-71
2023/04/25 20:05:46;;;;;;;11.82;5.55;;;;;;;-146.18;100.00;67994.34;10112500;28;20599;-70
2023/04/25 20:10:43;;;;;;;14.55;5.40;;;;;;;-146.18;100.00;67994.34;10114689;28;20043;-70
2023/04/25 20:15:40;;;;;;;6.82;4.47;;;;;;;-146.18;100.00;67994.34;10104216;28;20047;-70
2023/04/25 20:20:36;;;;;;;13.05;4.97;;;;;;;-146.18;100.00;67994.34;10107340;28;20481;-71
2023/04/25 20:25:32;;;;;;;9.35;5.00;;;;;;;-146.18;100.00;67994.34;10115451;28;20047;-71
2023/04/25 20:30:33;;;;;;;10.70;5.45;;;;;;;-146.18;100.00;67994.34;10109285;28;20494;-72
2023/04/25 20:35:29;;;;;;;11.82;5.20;;;;;;;-146.18;100.00;67994.34;10107301;28;20043;-71
2023/04/25 20:40:26;;;;;;;7.70;4.75;;;;;;;-146.18;100.00;67994.34;10107872;28;20098;-72
2023/04/25 20:45:24;;;;;;;10.15;4.60;;;;;;;-146.18;100.00;67994.34;10111367;28;20054;-71
2023/04/25 20:50:21;;;;;;;14.18;5.18;;;;;;;-146.18;100.00;67994.34;10113874;28;20499;-73
2023/04/25 20:55:18;;;;;;;10.07;5.13;;;;;;;-146.18;100.00;67994.34;10105427;28;20756;-72
2023/04/25 21:00:16;;;;;;;14.63;5.22;;;;;;;-146.18;100.00;67994.34;10102941;28;20074;-71
2023/04/25 21:05:13;;;;;;;12.07;5.30;;;;;;;-146.18;100.00;67994.34;10099345;28;20047;-70
2023/04/25 21:10:10;;;;;;;10.48;5.55;;;;;;;-146.18;100.00;67994.34;10100286;28;20528;-70
2023/04/25 21:15:07;;;;;;;10.10;5.50;;;;;;;-146.18;100.00;67994.34;10107928;28;20129;-70
2023/04/25 21:20:09;;;;;;;13.13;5.65;;;;;;;-146.18;100.00;67994.34;10108245;28;20085;-70
2023/04/25 21:25:06;;;;;;;12.13;5.23;;;;;;;-146.18;100.00;67994.34;10110784;28;20049;-72
2023/04/25 21:30:03;;;;;;;10.25;4.35;;;;;;;-146.18;100.00;67994.34;10112405;28;20474;-70
2023/04/25 21:34:59;;;;;;;12.27;5.30;;;;;;;-146.18;100.00;67994.34;10100319;28;20082;-70
2023/04/25 21:39:56;;;;;;;9.55;4.60;;;;;;;-146.18;100.00;67994.34;10097331;28;20536;-70
2023/04/25 21:44:52;;;;;;;15.45;7.47;;;;;;;-146.18;100.00;67994.34;10110189;28;20042;-70
2023/04/25 21:49:49;;;;;;;8.70;3.70;;;;;;;-146.18;100.00;67994.34;10111668;28;20053;-71
2023/04/25 21:54:46;;;;;;;6.57;4.30;;;;;;;-146.18;100.00;67994.34;10108168;28;20101;-70
2023/04/25 21:59:42;;;;;;;11.57;4.10;;;;;;;-146.18;100.00;67994.34;10104695;28;20042;-71
2023/04/25 22:04:41;;;;;;;7.68;4.07;;;;;;;-146.18;100.00;67994.34;10107877;28;20055;-71
2023/04/25 22:09:38;;;;;;;7.63;4.50;;;;;;;-146.18;100.00;67994.34;10103376;28;20256;-71